KGGW/GGW METAR and TAF weather

Enter ICAO airport designator
Station Type Date Time Source
KGGW METAR 2019/12/14 10:53 UTC NOAA

KGGW 141053Z AUTO 11010KT 10SM FEW110 M16/M20 A2994 RMK AO2 SLP192 T11611200


Station Type Date Time Source
KGGW Decoded METAR 2019/12/14 10:53 UTC NOAA

GLASGOW INTERNATIONAL AIRPORT , MT, United States (KGGW) 48-13N 106-37W 693M
Dec 14, 2019 - 05:53 AM EST / 2019.12.14 1053 UTC
Wind: from the ESE (110 degrees) at 12 MPH (10 KT):0
Visibility: 10 mile(s):0
Sky conditions: mostly clear
Temperature: 3.0 F (-16.1 C)
Windchill: -13 F (-25 C):2
Dew Point: -4.0 F (-20.0 C)
Relative Humidity: 71%
Pressure (altimeter): 29.94 in. Hg (1013 hPa)
ob: KGGW 141053Z AUTO 11010KT 10SM FEW110 M16/M20 A2994 RMK AO2 SLP192 T11611200
cycle: 11

Station Type Date Time Source
KGGW TAF 2019/12/14 12:27 UTC NOAA

TAF KGGW 141124Z 1412/1512 10010KT P6SM BKN080
FM142000 VRB05KT P6SM BKN035
FM150900 VRB03KT P6SM OVC040

Example: see airport list